createdAt,value
2022-08-04T00:02:07.664Z,18.90
2022-08-04T00:05:03.606Z,18.90
2022-08-04T00:08:06.647Z,19.00
2022-08-04T00:10:36.869Z,19.10
2022-08-04T00:13:05.660Z,19.10
2022-08-04T00:15:33.869Z,19.10
2022-08-04T00:18:07.846Z,19.10
2022-08-04T00:20:39.011Z,19.10
2022-08-04T00:23:07.439Z,19.10
2022-08-04T00:25:35.179Z,19.10
2022-08-04T00:28:02.381Z,19.00
2022-08-04T00:30:29.543Z,19.00
2022-08-04T00:32:58.601Z,19.00
2022-08-04T00:35:25.777Z,18.90
2022-08-04T00:37:53.680Z,18.90
2022-08-04T00:40:52.372Z,18.90
2022-08-04T00:43:29.458Z,18.90
2022-08-04T00:46:15.544Z,18.90
2022-08-04T00:48:57.049Z,18.90
2022-08-04T00:51:48.361Z,18.90
2022-08-04T00:54:42.390Z,18.90
2022-08-04T00:57:34.474Z,18.90
2022-08-04T01:00:11.896Z,18.90
2022-08-04T01:02:50.858Z,18.90
2022-08-04T01:05:39.026Z,18.90
2022-08-04T01:08:29.343Z,18.90
2022-08-04T01:11:08.903Z,19.00
2022-08-04T01:14:04.175Z,19.00
2022-08-04T01:16:34.927Z,19.00
2022-08-04T01:19:05.919Z,19.00
2022-08-04T01:22:11.471Z,19.00
2022-08-04T01:25:02.144Z,18.90
2022-08-04T01:27:37.956Z,18.90
2022-08-04T01:30:08.946Z,18.90
2022-08-04T01:32:45.927Z,18.80
2022-08-04T01:35:47.434Z,18.80
2022-08-04T01:38:28.605Z,18.80
2022-08-04T01:41:00.181Z,18.80
2022-08-04T01:43:33.261Z,18.80
2022-08-04T01:46:03.535Z,18.70
2022-08-04T01:48:31.019Z,18.70
2022-08-04T01:51:07.253Z,18.70
2022-08-04T01:53:38.540Z,18.70
2022-08-04T01:56:07.228Z,18.70
2022-08-04T01:58:37.078Z,18.70
2022-08-04T02:01:10.635Z,18.60
2022-08-04T02:04:21.698Z,18.60
2022-08-04T02:07:01.662Z,18.60
2022-08-04T02:09:54.624Z,18.60
2022-08-04T02:12:34.146Z,18.60
2022-08-04T02:15:24.712Z,18.60
2022-08-04T02:18:05.884Z,18.70
2022-08-04T02:20:41.884Z,18.60
2022-08-04T02:23:14.305Z,18.60
2022-08-04T02:25:47.392Z,18.60
2022-08-04T02:28:28.795Z,18.60
2022-08-04T02:31:07.960Z,18.60
2022-08-04T02:33:39.940Z,18.60
2022-08-04T02:36:11.542Z,18.60
2022-08-04T02:38:48.280Z,18.60
2022-08-04T02:41:20.169Z,18.60
2022-08-04T02:43:51.643Z,18.50
2022-08-04T02:46:22.728Z,18.50
2022-08-04T02:48:51.340Z,18.50
2022-08-04T02:51:22.930Z,18.50
2022-08-04T02:53:55.548Z,18.50
2022-08-04T02:56:24.892Z,18.50
2022-08-04T02:59:04.518Z,18.50
2022-08-04T03:01:32.275Z,18.50
2022-08-04T03:04:11.235Z,18.50
2022-08-04T03:07:05.909Z,18.50
2022-08-04T03:09:51.827Z,18.60
2022-08-04T03:12:33.978Z,18.60
2022-08-04T03:15:19.032Z,18.60
2022-08-04T03:18:23.573Z,18.70
2022-08-04T03:21:01.796Z,18.70
2022-08-04T03:23:56.797Z,18.80
2022-08-04T03:27:04.236Z,18.80
2022-08-04T03:29:55.914Z,18.90
2022-08-04T03:32:47.094Z,18.90
2022-08-04T03:35:44.037Z,18.90
2022-08-04T03:38:55.730Z,18.90
2022-08-04T03:42:12.111Z,19.00
2022-08-04T03:47:49.684Z,19.00
2022-08-04T03:51:35.159Z,19.10
2022-08-04T03:54:06.794Z,19.10
2022-08-04T03:56:57.020Z,19.20
2022-08-04T03:59:48.732Z,19.20
2022-08-04T04:02:16.073Z,19.30
2022-08-04T04:05:20.922Z,19.50
2022-08-04T04:07:59.678Z,19.70
2022-08-04T04:10:52.345Z,19.90
2022-08-04T04:13:31.013Z,20.00
2022-08-04T04:16:28.810Z,20.20
2022-08-04T04:19:40.174Z,20.50
2022-08-04T04:22:13.199Z,20.50
2022-08-04T04:24:59.011Z,20.40
2022-08-04T04:27:25.833Z,20.30
2022-08-04T04:29:58.610Z,20.10
2022-08-04T04:32:48.100Z,20.10
2022-08-04T04:35:26.561Z,20.00
2022-08-04T04:38:08.341Z,19.80
2022-08-04T04:41:01.411Z,19.80
2022-08-04T04:43:52.747Z,19.80
2022-08-04T04:46:28.618Z,19.70
2022-08-04T04:49:05.802Z,19.70
2022-08-04T04:52:18.694Z,19.70
2022-08-04T04:55:08.376Z,19.70
2022-08-04T04:57:54.348Z,19.80
2022-08-04T05:00:27.690Z,19.80
2022-08-04T05:03:21.279Z,19.90
2022-08-04T05:06:09.496Z,19.90
2022-08-04T05:09:06.806Z,20.00
2022-08-04T05:11:52.183Z,20.10
2022-08-04T05:14:34.756Z,20.20
2022-08-04T05:17:26.024Z,20.60
2022-08-04T05:20:05.429Z,21.10
2022-08-04T05:22:54.513Z,21.30
2022-08-04T05:25:32.080Z,21.50
2022-08-04T05:28:15.395Z,21.60
2022-08-04T05:30:50.496Z,21.60
2022-08-04T05:33:26.058Z,21.60
2022-08-04T05:36:18.925Z,21.60
2022-08-04T05:38:55.140Z,21.60
2022-08-04T05:41:23.018Z,21.60
2022-08-04T05:44:01.181Z,21.60
2022-08-04T05:46:31.265Z,21.70
2022-08-04T05:48:58.320Z,21.70
2022-08-04T05:51:26.783Z,21.80
2022-08-04T05:53:57.576Z,21.80
2022-08-04T05:56:25.624Z,21.80
2022-08-04T05:58:54.345Z,21.90
2022-08-04T06:01:23.655Z,22.00
2022-08-04T06:03:50.826Z,22.00
2022-08-04T06:06:19.812Z,22.00
2022-08-04T06:08:46.893Z,22.20
2022-08-04T06:12:00.492Z,22.20
2022-08-04T06:14:24.515Z,22.20
2022-08-04T06:16:53.496Z,22.30
2022-08-04T06:20:02.932Z,22.30
2022-08-04T06:22:15.255Z,22.40
2022-08-04T06:24:45.348Z,22.50
2022-08-04T06:27:13.198Z,22.60
2022-08-04T06:29:51.162Z,22.70
2022-08-04T06:32:38.608Z,22.70
2022-08-04T06:35:10.815Z,22.80
2022-08-04T06:37:42.942Z,22.80
2022-08-04T06:40:30.736Z,22.90
2022-08-04T06:43:04.545Z,22.90
2022-08-04T06:45:35.041Z,22.90
2022-08-04T06:48:05.274Z,23.00
2022-08-04T06:51:27.333Z,23.00
2022-08-04T06:53:22.708Z,23.00
2022-08-04T06:55:50.826Z,23.10
2022-08-04T06:58:20.531Z,23.10
2022-08-04T07:00:48.591Z,23.10
2022-08-04T07:03:19.515Z,23.20
2022-08-04T07:05:53.744Z,23.20
2022-08-04T07:08:21.872Z,23.30
2022-08-04T07:10:49.528Z,23.20
2022-08-04T07:13:18.367Z,23.20
2022-08-04T07:15:47.316Z,23.10
2022-08-04T07:18:15.238Z,23.00
2022-08-04T07:20:46.893Z,23.00
2022-08-04T07:23:17.936Z,23.10
2022-08-04T07:26:00.149Z,23.20
2022-08-04T07:28:40.882Z,23.20
2022-08-04T07:31:11.330Z,23.30
2022-08-04T07:34:17.659Z,23.30
2022-08-04T07:36:50.884Z,23.40
2022-08-04T07:39:28.307Z,23.50
2022-08-04T07:41:58.107Z,23.60
2022-08-04T07:44:25.597Z,23.70
2022-08-04T07:46:53.246Z,23.90
2022-08-04T07:49:56.709Z,24.20
2022-08-04T07:52:09.109Z,24.50
2022-08-04T07:54:36.573Z,24.70
2022-08-04T07:57:04.169Z,24.80
2022-08-04T07:59:32.010Z,25.00
2022-08-04T08:02:02.121Z,25.30
2022-08-04T08:04:30.088Z,25.50
2022-08-04T08:06:58.955Z,25.70
2022-08-04T08:09:26.660Z,25.80
2022-08-04T08:12:35.644Z,25.90
2022-08-04T08:14:48.691Z,26.10
2022-08-04T08:17:33.369Z,26.20
2022-08-04T08:20:30.230Z,26.40
2022-08-04T08:22:58.446Z,26.60
2022-08-04T08:25:25.717Z,26.60
2022-08-04T08:27:56.404Z,26.70
2022-08-04T08:30:31.694Z,26.90
2022-08-04T08:33:01.985Z,26.80
2022-08-04T08:35:39.786Z,26.90
2022-08-04T08:38:30.756Z,26.90
2022-08-04T08:41:29.927Z,26.90
2022-08-04T08:44:37.598Z,27.00
2022-08-04T08:47:58.477Z,27.00
2022-08-04T08:50:56.012Z,27.00
2022-08-04T08:53:30.323Z,26.80
2022-08-04T08:56:12.941Z,26.70
2022-08-04T08:59:20.094Z,26.70
2022-08-04T09:02:07.128Z,26.90
2022-08-04T09:05:03.400Z,27.00
2022-08-04T09:07:48.686Z,26.90
2022-08-04T09:10:15.676Z,27.10
2022-08-04T09:12:50.804Z,27.30
2022-08-04T09:15:40.042Z,27.20
2022-08-04T09:18:34.449Z,27.10
2022-08-04T09:21:18.824Z,27.10
2022-08-04T09:24:36.654Z,27.10
2022-08-04T09:27:13.266Z,27.10
2022-08-04T09:29:42.634Z,27.10
2022-08-04T09:32:32.352Z,27.20
2022-08-04T09:35:25.664Z,27.30
2022-08-04T09:38:19.420Z,27.20
2022-08-04T09:40:58.187Z,27.40
2022-08-04T09:44:42.753Z,27.60
2022-08-04T09:46:42.291Z,27.50
2022-08-04T09:49:38.900Z,27.50
2022-08-04T09:52:05.923Z,27.40
2022-08-04T09:54:57.797Z,27.60
2022-08-04T09:58:05.799Z,27.70
2022-08-04T10:00:44.192Z,27.80
2022-08-04T10:03:19.895Z,27.70
2022-08-04T10:06:07.217Z,27.60
2022-08-04T10:09:08.081Z,27.60
2022-08-04T10:11:55.352Z,27.70
2022-08-04T10:14:37.735Z,27.70
2022-08-04T10:17:51.897Z,27.80
2022-08-04T10:20:45.794Z,27.70
2022-08-04T10:23:55.947Z,27.60
2022-08-04T10:26:46.303Z,27.50
2022-08-04T10:29:35.322Z,27.60
2022-08-04T10:32:36.962Z,27.60
2022-08-04T10:35:17.617Z,27.60
2022-08-04T10:38:13.420Z,27.60
2022-08-04T10:40:45.802Z,27.60
2022-08-04T10:43:31.620Z,27.60
2022-08-04T10:46:36.648Z,27.60
2022-08-04T10:49:34.033Z,27.50
2022-08-04T10:52:20.991Z,27.60
2022-08-04T10:55:13.402Z,27.60
2022-08-04T10:57:46.338Z,27.70
2022-08-04T11:00:27.303Z,27.60
2022-08-04T11:02:58.725Z,27.50
2022-08-04T11:05:55.504Z,27.50
2022-08-04T11:08:38.124Z,27.50
2022-08-04T11:11:25.309Z,27.50
2022-08-04T11:14:03.514Z,27.50
2022-08-04T11:16:42.870Z,27.50
2022-08-04T11:19:42.812Z,27.40
2022-08-04T11:22:30.056Z,27.30
2022-08-04T11:25:18.464Z,27.20
2022-08-04T11:27:56.874Z,27.10
2022-08-04T11:30:30.834Z,27.00
2022-08-04T11:33:23.978Z,26.90
2022-08-04T11:36:13.851Z,26.90
2022-08-04T11:38:57.462Z,26.90
2022-08-04T11:41:49.017Z,26.70
2022-08-04T11:44:26.920Z,26.80
2022-08-04T11:46:59.523Z,26.90
2022-08-04T11:49:57.294Z,27.00
2022-08-04T11:52:28.489Z,27.10
2022-08-04T11:54:58.740Z,27.00
2022-08-04T11:57:35.441Z,26.90
2022-08-04T12:00:09.184Z,26.90
2022-08-04T12:03:07.002Z,26.70
2022-08-04T12:05:41.741Z,26.70
2022-08-04T12:08:33.391Z,26.80
2022-08-04T12:11:06.341Z,26.70
2022-08-04T12:13:50.903Z,26.70
2022-08-04T12:16:44.191Z,26.60
2022-08-04T12:19:30.962Z,26.70
2022-08-04T12:22:20.425Z,26.50
2022-08-04T12:25:05.410Z,26.50
2022-08-04T12:27:37.381Z,26.50
2022-08-04T12:30:58.688Z,26.50
2022-08-04T12:34:03.021Z,26.50
2022-08-04T12:36:48.398Z,26.60
2022-08-04T12:39:22.642Z,26.60
2022-08-04T12:42:34.004Z,26.60
2022-08-04T12:45:07.520Z,26.60
2022-08-04T12:47:36.996Z,26.50
2022-08-04T12:50:08.200Z,26.50
2022-08-04T12:53:05.385Z,26.40
2022-08-04T12:55:35.524Z,26.50
2022-08-04T12:58:11.740Z,26.50
2022-08-04T13:00:41.798Z,26.50
2022-08-04T13:03:34.650Z,26.50
2022-08-04T13:06:01.831Z,26.50
2022-08-04T13:08:28.977Z,26.50
2022-08-04T13:11:00.504Z,26.60
2022-08-04T13:13:29.346Z,26.60
2022-08-04T13:16:08.732Z,26.60
2022-08-04T13:18:46.027Z,26.70
2022-08-04T13:21:49.539Z,26.60
2022-08-04T13:24:20.946Z,26.60
2022-08-04T13:27:03.346Z,26.50
2022-08-04T13:29:59.902Z,26.50
2022-08-04T13:32:27.829Z,26.50
2022-08-04T13:34:57.595Z,26.40
2022-08-04T13:37:39.282Z,26.50
2022-08-04T13:40:12.068Z,26.50
2022-08-04T13:42:40.086Z,26.50
2022-08-04T13:45:08.509Z,26.60
2022-08-04T13:47:39.351Z,26.60
2022-08-04T13:50:28.783Z,26.50
2022-08-04T13:53:00.979Z,26.50
2022-08-04T13:55:36.452Z,26.50
2022-08-04T13:58:14.709Z,26.50
2022-08-04T14:01:04.287Z,26.50
2022-08-04T14:03:53.590Z,26.50
2022-08-04T14:06:32.368Z,26.40
2022-08-04T14:09:02.273Z,26.40
2022-08-04T14:12:10.071Z,26.50
2022-08-04T14:14:29.211Z,26.40
2022-08-04T14:17:00.735Z,26.40
2022-08-04T14:20:01.078Z,26.40
2022-08-04T14:22:30.444Z,26.30
2022-08-04T14:25:15.678Z,26.30
2022-08-04T14:27:51.559Z,26.30
2022-08-04T14:30:24.449Z,26.30
2022-08-04T14:34:03.910Z,26.30
2022-08-04T14:36:03.791Z,26.30
2022-08-04T14:38:51.764Z,26.50
2022-08-04T14:41:26.667Z,26.60
2022-08-04T14:43:59.989Z,26.60
2022-08-04T14:46:36.003Z,26.60
2022-08-04T14:49:12.445Z,26.60
2022-08-04T14:51:52.675Z,26.60
2022-08-04T14:54:35.512Z,26.60
2022-08-04T14:57:05.304Z,26.60
2022-08-04T15:00:01.427Z,26.60
2022-08-04T15:02:32.713Z,26.60
2022-08-04T15:05:55.081Z,26.50
2022-08-04T15:07:47.783Z,26.40
2022-08-04T15:10:15.215Z,26.40
2022-08-04T15:12:42.439Z,26.40
2022-08-04T15:15:35.182Z,26.30
2022-08-04T15:17:56.813Z,26.30
2022-08-04T15:20:23.990Z,26.30
2022-08-04T15:22:53.340Z,26.30
2022-08-04T15:25:20.612Z,26.20
2022-08-04T15:27:50.246Z,26.20
2022-08-04T15:30:18.547Z,26.20
2022-08-04T15:32:56.564Z,26.20
2022-08-04T15:35:38.818Z,26.20
2022-08-04T15:38:29.546Z,26.10
2022-08-04T15:41:16.623Z,26.00
2022-08-04T15:44:18.420Z,26.00
2022-08-04T15:46:53.374Z,26.00
2022-08-04T15:49:22.026Z,26.00
2022-08-04T15:52:04.164Z,25.90
2022-08-04T15:54:42.329Z,26.00
2022-08-04T15:57:58.151Z,26.00
2022-08-04T16:00:25.264Z,26.00
2022-08-04T16:02:52.475Z,26.00
2022-08-04T16:05:19.468Z,26.00
2022-08-04T16:08:00.321Z,26.00
2022-08-04T16:10:30.325Z,25.90
2022-08-04T16:13:25.433Z,25.90
2022-08-04T16:15:56.048Z,25.90
2022-08-04T16:18:44.768Z,25.90
2022-08-04T16:21:21.534Z,25.90
2022-08-04T16:23:57.983Z,25.90
2022-08-04T16:26:42.418Z,25.90
2022-08-04T16:29:29.591Z,25.90
2022-08-04T16:32:05.661Z,25.90
2022-08-04T16:34:53.833Z,25.80
2022-08-04T16:37:24.630Z,25.80
2022-08-04T16:40:35.384Z,25.80
2022-08-04T16:43:10.089Z,25.80
2022-08-04T16:46:04.699Z,25.80
2022-08-04T16:48:32.725Z,25.70
2022-08-04T16:51:04.788Z,25.70
2022-08-04T16:53:52.289Z,25.60
2022-08-04T16:56:35.686Z,25.50
2022-08-04T16:59:10.632Z,25.50
2022-08-04T17:01:44.827Z,25.40
2022-08-04T17:04:12.064Z,25.40
2022-08-04T17:06:41.105Z,25.30
2022-08-04T17:09:34.130Z,25.30
2022-08-04T17:12:02.346Z,25.20
2022-08-04T17:14:33.189Z,25.20
2022-08-04T17:17:02.601Z,25.10
2022-08-04T17:19:29.764Z,25.10
2022-08-04T17:22:05.960Z,25.10
2022-08-04T17:24:36.932Z,25.00
2022-08-04T17:28:20.141Z,25.00
2022-08-04T17:29:54.684Z,24.90
2022-08-04T17:32:23.203Z,24.90
2022-08-04T17:34:53.621Z,24.80
2022-08-04T17:37:51.989Z,24.80
2022-08-04T17:40:34.718Z,24.80
2022-08-04T17:44:01.419Z,24.70
2022-08-04T17:46:28.810Z,24.70
2022-08-04T17:52:06.851Z,24.60
2022-08-04T17:54:40.381Z,24.60
2022-08-04T17:57:19.658Z,24.50
2022-08-04T17:59:56.998Z,24.40
2022-08-04T18:05:54.121Z,24.40
2022-08-04T18:08:40.348Z,24.40
2022-08-04T18:11:29.903Z,24.30
2022-08-04T18:14:10.503Z,24.30
2022-08-04T18:16:45.073Z,24.30
2022-08-04T18:19:18.759Z,24.20
2022-08-04T18:21:59.671Z,24.20
2022-08-04T18:24:35.874Z,24.10
2022-08-04T18:27:18.570Z,24.00
2022-08-04T18:30:14.961Z,23.90
2022-08-04T18:32:34.152Z,23.80
2022-08-04T18:35:05.543Z,23.80
2022-08-04T18:38:05.427Z,23.70
2022-08-04T18:40:29.979Z,23.70
2022-08-04T18:43:03.622Z,23.60
2022-08-04T18:45:35.099Z,23.50
2022-08-04T18:48:03.990Z,23.50
2022-08-04T18:51:10.227Z,23.40
2022-08-04T18:53:37.607Z,23.40
2022-08-04T18:56:19.903Z,23.40
2022-08-04T18:58:53.078Z,23.30
2022-08-04T19:01:20.177Z,23.30
2022-08-04T19:03:52.304Z,23.30
2022-08-04T19:06:26.104Z,23.30
2022-08-04T19:08:54.842Z,23.20
2022-08-04T19:11:54.176Z,23.30
2022-08-04T19:14:13.150Z,23.30
2022-08-04T19:16:56.718Z,23.30
2022-08-04T19:19:23.867Z,23.30
2022-08-04T19:22:10.839Z,23.20
2022-08-04T19:24:57.799Z,23.20
2022-08-04T19:27:25.684Z,23.20
2022-08-04T19:30:06.732Z,23.10
2022-08-04T19:32:40.862Z,23.10
2022-08-04T19:35:13.119Z,23.00
2022-08-04T19:37:57.627Z,22.90
2022-08-04T19:40:33.862Z,22.90
2022-08-04T19:43:14.328Z,22.80
2022-08-04T19:45:48.615Z,22.80
2022-08-04T19:48:18.938Z,22.70
2022-08-04T19:50:47.318Z,22.70
2022-08-04T19:53:19.727Z,22.60
2022-08-04T19:55:49.528Z,22.60
2022-08-04T19:58:21.596Z,22.50
2022-08-04T20:00:53.828Z,22.50
2022-08-04T20:03:22.646Z,22.40
2022-08-04T20:06:09.664Z,22.40
2022-08-04T20:08:39.003Z,22.40
2022-08-04T20:11:16.693Z,22.40
2022-08-04T20:13:45.619Z,22.40
2022-08-04T20:16:29.697Z,22.40
2022-08-04T20:19:03.258Z,22.40
2022-08-04T20:21:54.130Z,22.40
2022-08-04T20:24:39.481Z,22.30
2022-08-04T20:27:15.191Z,22.30
2022-08-04T20:30:05.221Z,22.20
2022-08-04T20:32:52.762Z,22.20
2022-08-04T20:35:27.974Z,22.20
2022-08-04T20:38:00.418Z,22.10
2022-08-04T20:43:15.809Z,22.00
2022-08-04T20:45:56.910Z,21.90
2022-08-04T20:48:33.558Z,21.90
2022-08-04T20:51:01.058Z,21.90
2022-08-04T20:53:32.652Z,21.90
2022-08-04T20:59:07.737Z,21.90
2022-08-04T21:04:06.239Z,21.90
2022-08-04T21:06:34.312Z,21.90
2022-08-04T21:09:09.569Z,21.90
2022-08-04T21:11:47.217Z,21.80
2022-08-04T21:14:20.368Z,21.80
2022-08-04T21:16:55.604Z,21.70
2022-08-04T21:19:24.510Z,21.70
2022-08-04T21:21:54.627Z,21.70
2022-08-04T21:24:24.014Z,21.70
2022-08-04T21:26:58.506Z,21.70
2022-08-04T21:29:34.684Z,21.60
2022-08-04T21:32:07.929Z,21.60
2022-08-04T21:34:39.163Z,21.50
2022-08-04T21:37:13.334Z,21.50
2022-08-04T21:40:14.533Z,21.40
2022-08-04T21:42:53.497Z,21.50
2022-08-04T21:45:20.750Z,21.40
2022-08-04T21:47:49.855Z,21.40
2022-08-04T21:50:19.854Z,21.40
2022-08-04T21:52:49.837Z,21.40
2022-08-04T21:55:17.528Z,21.40
2022-08-04T21:57:46.155Z,21.40
2022-08-04T22:00:18.486Z,21.40
2022-08-04T22:02:53.371Z,21.40
2022-08-04T22:05:21.383Z,21.40
2022-08-04T22:07:50.789Z,21.30
2022-08-04T22:10:32.008Z,21.30
2022-08-04T22:13:06.926Z,21.30
2022-08-04T22:16:03.884Z,21.20
2022-08-04T22:18:27.831Z,21.20
2022-08-04T22:20:55.083Z,21.20
2022-08-04T22:23:25.218Z,21.20
2022-08-04T22:25:55.389Z,21.20
2022-08-04T22:28:27.832Z,21.20
2022-08-04T22:30:56.124Z,21.30
2022-08-04T22:33:23.556Z,21.20
2022-08-04T22:36:12.164Z,21.20
2022-08-04T22:38:49.800Z,21.20
2022-08-04T22:41:21.728Z,21.20
2022-08-04T22:44:01.055Z,21.20
2022-08-04T22:46:31.536Z,21.20
2022-08-04T22:48:58.550Z,21.20
2022-08-04T22:51:27.148Z,21.20
2022-08-04T22:53:55.297Z,21.20
2022-08-04T22:56:37.915Z,21.20
2022-08-04T22:59:10.104Z,21.20
2022-08-04T23:01:59.491Z,21.10
2022-08-04T23:04:27.102Z,21.10
2022-08-04T23:06:54.844Z,21.10
2022-08-04T23:09:49.176Z,21.00
2022-08-04T23:12:30.161Z,21.10
2022-08-04T23:14:58.650Z,21.10
2022-08-04T23:17:27.836Z,21.10
2022-08-04T23:19:59.593Z,21.10
2022-08-04T23:22:40.940Z,21.10
2022-08-04T23:25:15.712Z,21.10
2022-08-04T23:27:51.133Z,21.10
2022-08-04T23:30:21.822Z,21.00
2022-08-04T23:32:53.364Z,21.00
2022-08-04T23:35:21.861Z,21.00
2022-08-04T23:37:57.270Z,21.00
2022-08-04T23:40:33.674Z,21.00
2022-08-04T23:43:16.964Z,20.90
2022-08-04T23:46:04.022Z,20.90
2022-08-04T23:48:33.754Z,20.90
2022-08-04T23:51:13.979Z,20.90
2022-08-04T23:54:01.835Z,20.80
2022-08-04T23:56:30.271Z,20.70
2022-08-04T23:59:03.545Z,20.70
